Luminous Kobe-2 — JJ3868 — position and weather

sailwx.info

Track history (hours):
 
Tides and Currents Weather Stations Pressure Air Temp Water Temp Dewpoint Dewpoint Depression Visibility Wind Speed Wind Dir Waves Ship Positions

Luminous Kobe-2

Last reported at 2014-Oct-20 04:33 UTC. Time now 2014-Oct-20 04:36 UTC.
Position N 34°38' E 135°11'.

Length 105 m; draft 4.5 m.

Type: Passenger vessel. MMSI: 431000469.

Date/timePositionNaut miles runAvg speedWind from/ knotsBaromVisibWave heightAir tempDewpointWater temp
2014-Oct-20 04:33N 34°38' E 135°11'3 2.9
2014-Oct-20 03:33N 34°37' E 135°14'4 4.2
2014-Oct-20 02:33N 34°41' E 135°11'0 0.0
2014-Oct-20 01:33N 34°41' E 135°11'0 0.0
2014-Oct-20 00:33N 34°41' E 135°11'0 0.0
2014-Oct-19 23:27N 34°41' E 135°11'0 0.0
2014-Oct-19 22:33N 34°41' E 135°11'0 0.0
2014-Oct-19 21:33N 34°41' E 135°11'0 0.0
2014-Oct-19 20:33N 34°41' E 135°11'0 0.0
2014-Oct-19 19:33N 34°41' E 135°11'0 0.0
2014-Oct-19 18:33N 34°41' E 135°11'0 0.0
2014-Oct-19 17:33N 34°41' E 135°11'0 0.0
2014-Oct-19 16:33N 34°41' E 135°11'0 0.0
2014-Oct-19 15:33N 34°41' E 135°11'0 0.0
2014-Oct-19 14:21N 34°41' E 135°11'0 0.0
2014-Oct-19 13:33N 34°41' E 135°11'0 0.0
2014-Oct-19 12:33N 34°41' E 135°11'6 5.8
2014-Oct-19 11:33N 34°36' E 135°07'0 0.2
2014-Oct-19 10:33N 34°36' E 135°07'6 5.9
2014-Oct-19 09:33N 34°41' E 135°11'3 2.6
2014-Oct-19 08:33N 34°38' E 135°11'3 2.7
2014-Oct-19 07:33N 34°37' E 135°14'4 4.2
2014-Oct-19 06:33N 34°41' E 135°11'0 0.0
2014-Oct-19 05:33N 34°41' E 135°11'3 2.8
2014-Oct-19 04:33N 34°38' E 135°10'3 3.0
2014-Oct-19 03:33N 34°37' E 135°14'4 3.7
2014-Oct-19 02:26N 34°41' E 135°11'0 0.0
2014-Oct-19 01:32N 34°41' E 135°11'0 0.0
2014-Oct-19 00:32N 34°41' E 135°11'0 0.0
2014-Oct-18 23:26N 34°41' E 135°11'0 0.0
2014-Oct-18 22:26N 34°41' E 135°11'0 0.0
2014-Oct-18 21:26N 34°41' E 135°11'0 0.0
2014-Oct-18 20:32N 34°41' E 135°11'0 0.0
2014-Oct-18 19:32N 34°41' E 135°11'0 0.0
2014-Oct-18 18:32N 34°41' E 135°11'0 0.0
2014-Oct-18 17:32N 34°41' E 135°11'0 0.0
2014-Oct-18 16:32N 34°41' E 135°11'0 0.0
2014-Oct-18 15:32N 34°41' E 135°11'0 0.0
2014-Oct-18 14:32N 34°41' E 135°11'0 0.0
2014-Oct-18 13:26N 34°41' E 135°11'0 0.0
2014-Oct-18 12:32N 34°41' E 135°11'7 7.0
2014-Oct-18 11:33N 34°36' E 135°06'2 1.7
2014-Oct-18 10:33N 34°37' E 135°07'5 5.0
2014-Oct-18 09:33N 34°41' E 135°11'3 2.7
2014-Oct-18 08:33N 34°38' E 135°11'3 2.5
2014-Oct-18 07:33N 34°37' E 135°14'4 4.0
2014-Oct-18 06:33N 34°41' E 135°11'0 0.0
2014-Oct-18 05:32N 34°41' E 135°11'2 2.4
2014-Oct-18 04:33N 34°38' E 135°11'3 2.5
2014-Oct-18 03:33N 34°37' E 135°14'4 4.2
2014-Oct-18 02:33N 34°41' E 135°11'0 0.0
2014-Oct-18 01:33N 34°41' E 135°11'0 0.0
2014-Oct-18 00:33N 34°41' E 135°11'0 0.0
2014-Oct-17 23:27N 34°41' E 135°11'0 0.0
2014-Oct-17 22:33N 34°41' E 135°11'0 0.0
2014-Oct-17 21:33N 34°41' E 135°11'0 0.0
2014-Oct-17 20:33N 34°41' E 135°11'0 0.0
2014-Oct-17 19:33N 34°41' E 135°11'0 0.0
2014-Oct-17 18:33N 34°41' E 135°11'0 0.0
2014-Oct-17 17:27N 34°41' E 135°11'0 0.0
2014-Oct-17 16:27N 34°41' E 135°11'0 0.0
2014-Oct-17 15:33N 34°41' E 135°11'0 0.0
2014-Oct-17 14:33N 34°41' E 135°11'0 0.0
2014-Oct-17 13:27N 34°41' E 135°11'0 0.0
2014-Oct-17 12:33N 34°41' E 135°11'6 5.8
2014-Oct-17 11:33N 34°36' E 135°07'0 0.2
2014-Oct-17 10:33N 34°36' E 135°06'6 5.9
2014-Oct-17 09:33N 34°41' E 135°11'0 0.0
2014-Oct-17 08:30N 34°41' E 135°11'5 5.1
2014-Oct-17 07:33N 34°37' E 135°07'5 3.7
2014-Oct-17 06:15N 34°41' E 135°11'0 0.0
2014-Oct-17 05:33N 34°41' E 135°11'3 2.7
2014-Oct-17 04:33N 34°38' E 135°11'2 2.3
2014-Oct-17 03:33N 34°37' E 135°13'4 4.1
2014-Oct-17 02:32N 34°41' E 135°11'0 0.0
2014-Oct-17 01:32N 34°41' E 135°11'0 0.0
2014-Oct-17 00:32N 34°41' E 135°11'0 0.0
2014-Oct-16 23:32N 34°41' E 135°11'0 0.0
2014-Oct-16 22:32N 34°41' E 135°11'0 0.0
2014-Oct-16 21:32N 34°41' E 135°11'0 0.0
2014-Oct-16 20:32N 34°41' E 135°11'0 0.0
2014-Oct-16 19:32N 34°41' E 135°11'0 0.0
2014-Oct-16 18:26N 34°41' E 135°11'0 0.0
2014-Oct-16 17:32N 34°41' E 135°11'0 0.0
2014-Oct-16 16:32N 34°41' E 135°11'0 0.0
2014-Oct-16 15:32N 34°41' E 135°11'0 0.0
2014-Oct-16 14:32N 34°41' E 135°11'0 0.0
2014-Oct-16 13:32N 34°41' E 135°11'0 0.0
2014-Oct-16 12:18N 34°41' E 135°11'7 8.8
2014-Oct-16 11:33N 34°36' E 135°06'1 1.1
2014-Oct-16 10:33N 34°37' E 135°07'6 5.5
2014-Oct-16 09:34N 34°41' E 135°11'5 4.9
2014-Oct-16 08:34N 34°37' E 135°07'5 4.9
2014-Oct-16 07:33N 34°41' E 135°11'0 0.0
2014-Oct-16 06:31N 34°41' E 135°11'0 0.0
2014-Oct-16 05:31N 34°41' E 135°11'2 2.5
2014-Oct-16 04:33N 34°38' E 135°11'3 2.5
2014-Oct-16 03:33N 34°37' E 135°14'4 4.0
2014-Oct-16 02:34N 34°41' E 135°11'0 0.0
2014-Oct-16 01:27N 34°41' E 135°11'0 0.0
2014-Oct-16 00:15N 34°41' E 135°11'0 0.0
2014-Oct-15 23:33N 34°41' E 135°11'0 0.0
2014-Oct-15 22:33N 34°41' E 135°11'0 0.0
2014-Oct-15 21:33N 34°41' E 135°11'0 0.0
2014-Oct-15 20:33N 34°41' E 135°11'0 0.0
2014-Oct-15 19:33N 34°41' E 135°11'0 0.0
2014-Oct-15 18:33N 34°41' E 135°11'0 0.0
2014-Oct-15 17:33N 34°41' E 135°11'0 0.0
2014-Oct-15 16:27N 34°41' E 135°11'0 0.0
2014-Oct-15 15:33N 34°41' E 135°11'0 0.0
2014-Oct-15 14:33N 34°41' E 135°11'0 0.0
2014-Oct-15 13:33N 34°41' E 135°11'0 0.0
2014-Oct-15 12:33N 34°41' E 135°11'7 6.8
2014-Oct-15 11:33N 34°35' E 135°06'2 1.7
2014-Oct-15 10:33N 34°37' E 135°07'5 5.2
2014-Oct-15 09:33N 34°41' E 135°11'5 4.9
2014-Oct-15 08:33N 34°37' E 135°07'5 4.9
2014-Oct-15 07:33N 34°41' E 135°11'0 0.0
2014-Oct-15 06:33N 34°41' E 135°11'0 0.0
2014-Oct-15 05:27N 34°41' E 135°11'2 2.8
2014-Oct-15 04:34N 34°38' E 135°11'2 2.4
2014-Oct-15 03:33N 34°37' E 135°14'4 3.4
2014-Oct-15 02:22N 34°41' E 135°11'0 0.0
2014-Oct-15 01:28N 34°41' E 135°11'0 0.0
2014-Oct-15 00:22N 34°41' E 135°11'0 0.0
2014-Oct-14 23:28N 34°41' E 135°11'0 0.0
2014-Oct-14 22:28N 34°41' E 135°11'0 0.0
2014-Oct-14 21:28N 34°41' E 135°11'0 0.0
2014-Oct-14 20:28N 34°41' E 135°11'0 0.0
2014-Oct-14 19:28N 34°41' E 135°11'0 0.0
2014-Oct-14 18:28N 34°41' E 135°11'0 0.0
2014-Oct-14 17:22N 34°41' E 135°11'0 0.0
2014-Oct-14 16:28N 34°41' E 135°11'0 0.0
2014-Oct-14 15:28N 34°41' E 135°11'0 0.0
2014-Oct-14 14:28N 34°41' E 135°11'0 0.0
2014-Oct-14 13:16N 34°41' E 135°11'0 0.0
2014-Oct-14 12:28N 34°41' E 135°11'6 6.7
2014-Oct-14 11:33N 34°36' E 135°07'1 0.6
2014-Oct-14 10:33N 34°36' E 135°07'6 5.2
2014-Oct-14 09:28N 34°41' E 135°11'0 0.0
2014-Oct-14 08:28N 34°41' E 135°11'0 0.0
2014-Oct-14 07:28N 34°41' E 135°11'0 0.0
2014-Oct-14 06:22N 34°41' E 135°11'0 0.0
2014-Oct-14 05:28N 34°41' E 135°11'0 0.0
2014-Oct-14 04:28N 34°41' E 135°11'0 0.0
2014-Oct-14 03:28N 34°41' E 135°11'0 0.0
2014-Oct-14 02:22N 34°41' E 135°11'2 2.5
2014-Oct-14 01:33N 34°39' E 135°11'10 9.6
2014-Oct-14 00:29N 34°29' E 135°12'0 0.0
2014-Oct-13 23:23N 34°29' E 135°12'0 0.0
2014-Oct-13 22:29N 34°29' E 135°12'0 0.0
2014-Oct-13 21:29N 34°29' E 135°12'0 0.0
2014-Oct-13 20:29N 34°29' E 135°12'0 0.0
2014-Oct-13 19:23N 34°29' E 135°12'0 0.0
2014-Oct-13 18:29N 34°29' E 135°12'0 0.0
2014-Oct-13 17:29N 34°29' E 135°12'0 0.0
2014-Oct-13 16:29N 34°29' E 135°12'0 0.0
2014-Oct-13 15:29N 34°29' E 135°12'0 0.0
2014-Oct-13 14:29N 34°29' E 135°12'0 0.0
2014-Oct-13 13:29N 34°29' E 135°12'0 0.0
2014-Oct-13 12:29N 34°29' E 135°12'0 0.1
2014-Oct-13 11:29N 34°29' E 135°12'0 0.1
2014-Oct-13 10:29N 34°29' E 135°12'0 0.0
2014-Oct-13 09:17N 34°29' E 135°12'0 0.0
2014-Oct-13 08:29N 34°29' E 135°12'0 0.0
2014-Oct-13 07:29N 34°29' E 135°12'0 0.0
2014-Oct-13 06:29N 34°29' E 135°12'0 0.0
2014-Oct-13 05:23N 34°29' E 135°12'0 0.0
2014-Oct-13 04:29N 34°29' E 135°12'0 0.0
2014-Oct-13 03:29N 34°29' E 135°12'0 0.0
2014-Oct-13 02:29N 34°29' E 135°12'0 0.0
2014-Oct-13 01:29N 34°29' E 135°12'0 0.0
2014-Oct-13 00:29N 34°29' E 135°12'0 0.0
2014-Oct-12 23:29N 34°29' E 135°12'0 0.0
2014-Oct-12 22:29N 34°29' E 135°12'0 0.0
2014-Oct-12 21:29N 34°29' E 135°12'0 0.0
2014-Oct-12 20:23N 34°29' E 135°12'0 0.0
2014-Oct-12 19:29N 34°29' E 135°12'0 0.0
2014-Oct-12 18:29N 34°29' E 135°12'0 0.0
2014-Oct-12 17:23N 34°29' E 135°12'0 0.0
2014-Oct-12 16:29N 34°29' E 135°12'0 0.1
2014-Oct-12 15:34N 34°29' E 135°12'1212.1
2014-Oct-12 14:33N 34°41' E 135°11'0 0.1
2014-Oct-12 13:32N 34°41' E 135°11'0 0.0
2014-Oct-12 12:32N 34°41' E 135°11'6 6.5
2014-Oct-12 11:33N 34°36' E 135°06'2 2.2
2014-Oct-12 10:33N 34°37' E 135°08'4 4.2
2014-Oct-12 09:33N 34°41' E 135°11'7 7.3
2014-Oct-12 08:33N 34°35' E 135°06'3 3.0
2014-Oct-12 07:33N 34°37' E 135°08'4 4.0
2014-Oct-12 06:29N 34°41' E 135°11'0 0.0
2014-Oct-12 05:30N 34°41' E 135°11'2 2.6
2014-Oct-12 04:34N 34°38' E 135°11'3 2.5
2014-Oct-12 03:33N 34°37' E 135°14'4 4.3
2014-Oct-12 02:33N 34°41' E 135°11'0 0.0
2014-Oct-12 01:28N 34°41' E 135°11'0 0.0
2014-Oct-12 00:28N 34°41' E 135°11'0 0.0
2014-Oct-11 23:28N 34°41' E 135°11'0 0.0
2014-Oct-11 22:28N 34°41' E 135°11'0 0.0
2014-Oct-11 21:28N 34°41' E 135°11'0 0.0
2014-Oct-11 20:28N 34°41' E 135°11'0 0.0
2014-Oct-11 19:28N 34°41' E 135°11'0 0.0
2014-Oct-11 18:28N 34°41' E 135°11'0 0.0
2014-Oct-11 17:28N 34°41' E 135°11'0 0.0
2014-Oct-11 16:28N 34°41' E 135°11'0 0.0
2014-Oct-11 15:28N 34°41' E 135°11'0 0.0
2014-Oct-11 14:28N 34°41' E 135°11'0 0.0
2014-Oct-11 13:28N 34°41' E 135°11'0 0.0
2014-Oct-11 12:28N 34°41' E 135°11'6 6.5
2014-Oct-11 11:33N 34°36' E 135°08'2 1.5
2014-Oct-11 10:33N 34°37' E 135°07'6 5.2
2014-Oct-11 09:29N 34°41' E 135°11'2 2.6
2014-Oct-11 08:33N 34°38' E 135°11'2 2.5
2014-Oct-11 07:33N 34°37' E 135°14'4 3.8
2014-Oct-11 06:28N 34°41' E 135°11'0 0.0
2014-Oct-11 05:28N 34°41' E 135°11'3 2.9
2014-Oct-11 04:33N 34°38' E 135°11'3 2.7
2014-Oct-11 03:33N 34°37' E 135°14'4 4.2
2014-Oct-11 02:33N 34°41' E 135°11'0 0.0
2014-Oct-11 01:30N 34°41' E 135°11'0 0.0
2014-Oct-11 00:30N 34°41' E 135°11'0 0.0
2014-Oct-10 23:18N 34°41' E 135°11'0 0.0
2014-Oct-10 22:30N 34°41' E 135°11'0 0.0
2014-Oct-10 21:24N 34°41' E 135°11'0 0.0
2014-Oct-10 20:30N 34°41' E 135°11'0 0.0
2014-Oct-10 19:30N 34°41' E 135°11'0 0.0
2014-Oct-10 18:30N 34°41' E 135°11'0 0.0
2014-Oct-10 17:30N 34°41' E 135°11'0 0.0
2014-Oct-10 16:30N 34°41' E 135°11'0 0.0
2014-Oct-10 15:24N 34°41' E 135°11'0 0.0
2014-Oct-10 14:30N 34°41' E 135°11'0 0.0
2014-Oct-10 13:30N 34°41' E 135°11'0 0.0
2014-Oct-10 12:30N 34°41' E 135°11'6 6.7
2014-Oct-10 11:33N 34°36' E 135°07'1 1.1
2014-Oct-10 10:33N 34°37' E 135°07'5 5.2
2014-Oct-10 09:32N 34°41' E 135°11'0 0.0
2014-Oct-10 08:32N 34°41' E 135°11'5 4.9
2014-Oct-10 07:33N 34°38' E 135°07'5 4.6
2014-Oct-10 06:31N 34°41' E 135°11'0 0.0
2014-Oct-10 05:25N 34°41' E 135°11'  
Track history (hours):
 
Tides and Currents Weather Stations Pressure Air Temp Water Temp Dewpoint Dewpoint Depression Visibility Wind Speed Wind Dir Waves Ship Positions

Luminous Kobe-2

Last reported at 2014-Oct-20 04:33 UTC. Time now 2014-Oct-20 04:36 UTC.
Position N 34°38' E 135°11'.

Length 105 m; draft 4.5 m.

Type: Passenger vessel. MMSI: 431000469.

Date/timePositionNaut miles runAvg speedWind from/ knotsBaromVisibWave heightAir tempDewpointWater temp
2014-Oct-20 04:33N 34°38' E 135°11'3 2.9
2014-Oct-20 03:33N 34°37' E 135°14'4 4.2
2014-Oct-20 02:33N 34°41' E 135°11'0 0.0
2014-Oct-20 01:33N 34°41' E 135°11'0 0.0
2014-Oct-20 00:33N 34°41' E 135°11'0 0.0
2014-Oct-19 23:27N 34°41' E 135°11'0 0.0
2014-Oct-19 22:33N 34°41' E 135°11'0 0.0
2014-Oct-19 21:33N 34°41' E 135°11'0 0.0
2014-Oct-19 20:33N 34°41' E 135°11'0 0.0
2014-Oct-19 19:33N 34°41' E 135°11'0 0.0
2014-Oct-19 18:33N 34°41' E 135°11'0 0.0
2014-Oct-19 17:33N 34°41' E 135°11'0 0.0
2014-Oct-19 16:33N 34°41' E 135°11'0 0.0
2014-Oct-19 15:33N 34°41' E 135°11'0 0.0
2014-Oct-19 14:21N 34°41' E 135°11'0 0.0
2014-Oct-19 13:33N 34°41' E 135°11'0 0.0
2014-Oct-19 12:33N 34°41' E 135°11'6 5.8
2014-Oct-19 11:33N 34°36' E 135°07'0 0.2
2014-Oct-19 10:33N 34°36' E 135°07'6 5.9
2014-Oct-19 09:33N 34°41' E 135°11'3 2.6
2014-Oct-19 08:33N 34°38' E 135°11'3 2.7
2014-Oct-19 07:33N 34°37' E 135°14'4 4.2
2014-Oct-19 06:33N 34°41' E 135°11'0 0.0
2014-Oct-19 05:33N 34°41' E 135°11'3 2.8
2014-Oct-19 04:33N 34°38' E 135°10'3 3.0
2014-Oct-19 03:33N 34°37' E 135°14'4 3.7
2014-Oct-19 02:26N 34°41' E 135°11'0 0.0
2014-Oct-19 01:32N 34°41' E 135°11'0 0.0
2014-Oct-19 00:32N 34°41' E 135°11'0 0.0
2014-Oct-18 23:26N 34°41' E 135°11'0 0.0
2014-Oct-18 22:26N 34°41' E 135°11'0 0.0
2014-Oct-18 21:26N 34°41' E 135°11'0 0.0
2014-Oct-18 20:32N 34°41' E 135°11'0 0.0
2014-Oct-18 19:32N 34°41' E 135°11'0 0.0
2014-Oct-18 18:32N 34°41' E 135°11'0 0.0
2014-Oct-18 17:32N 34°41' E 135°11'0 0.0
2014-Oct-18 16:32N 34°41' E 135°11'0 0.0
2014-Oct-18 15:32N 34°41' E 135°11'0 0.0
2014-Oct-18 14:32N 34°41' E 135°11'0 0.0
2014-Oct-18 13:26N 34°41' E 135°11'0 0.0
2014-Oct-18 12:32N 34°41' E 135°11'7 7.0
2014-Oct-18 11:33N 34°36' E 135°06'2 1.7
2014-Oct-18 10:33N 34°37' E 135°07'5 5.0
2014-Oct-18 09:33N 34°41' E 135°11'3 2.7
2014-Oct-18 08:33N 34°38' E 135°11'3 2.5
2014-Oct-18 07:33N 34°37' E 135°14'4 4.0
2014-Oct-18 06:33N 34°41' E 135°11'0 0.0
2014-Oct-18 05:32N 34°41' E 135°11'2 2.4
2014-Oct-18 04:33N 34°38' E 135°11'3 2.5
2014-Oct-18 03:33N 34°37' E 135°14'4 4.2
2014-Oct-18 02:33N 34°41' E 135°11'0 0.0
2014-Oct-18 01:33N 34°41' E 135°11'0 0.0
2014-Oct-18 00:33N 34°41' E 135°11'0 0.0
2014-Oct-17 23:27N 34°41' E 135°11'0 0.0
2014-Oct-17 22:33N 34°41' E 135°11'0 0.0
2014-Oct-17 21:33N 34°41' E 135°11'0 0.0
2014-Oct-17 20:33N 34°41' E 135°11'0 0.0
2014-Oct-17 19:33N 34°41' E 135°11'0 0.0
2014-Oct-17 18:33N 34°41' E 135°11'0 0.0
2014-Oct-17 17:27N 34°41' E 135°11'0 0.0
2014-Oct-17 16:27N 34°41' E 135°11'0 0.0
2014-Oct-17 15:33N 34°41' E 135°11'0 0.0
2014-Oct-17 14:33N 34°41' E 135°11'0 0.0
2014-Oct-17 13:27N 34°41' E 135°11'0 0.0
2014-Oct-17 12:33N 34°41' E 135°11'6 5.8
2014-Oct-17 11:33N 34°36' E 135°07'0 0.2
2014-Oct-17 10:33N 34°36' E 135°06'6 5.9
2014-Oct-17 09:33N 34°41' E 135°11'0 0.0
2014-Oct-17 08:30N 34°41' E 135°11'5 5.1
2014-Oct-17 07:33N 34°37' E 135°07'5 3.7
2014-Oct-17 06:15N 34°41' E 135°11'0 0.0
2014-Oct-17 05:33N 34°41' E 135°11'3 2.7
2014-Oct-17 04:33N 34°38' E 135°11'2 2.3
2014-Oct-17 03:33N 34°37' E 135°13'4 4.1
2014-Oct-17 02:32N 34°41' E 135°11'0 0.0
2014-Oct-17 01:32N 34°41' E 135°11'0 0.0
2014-Oct-17 00:32N 34°41' E 135°11'0 0.0
2014-Oct-16 23:32N 34°41' E 135°11'0 0.0
2014-Oct-16 22:32N 34°41' E 135°11'0 0.0
2014-Oct-16 21:32N 34°41' E 135°11'0 0.0
2014-Oct-16 20:32N 34°41' E 135°11'0 0.0
2014-Oct-16 19:32N 34°41' E 135°11'0 0.0
2014-Oct-16 18:26N 34°41' E 135°11'0 0.0
2014-Oct-16 17:32N 34°41' E 135°11'0 0.0
2014-Oct-16 16:32N 34°41' E 135°11'0 0.0
2014-Oct-16 15:32N 34°41' E 135°11'0 0.0
2014-Oct-16 14:32N 34°41' E 135°11'0 0.0
2014-Oct-16 13:32N 34°41' E 135°11'0 0.0
2014-Oct-16 12:18N 34°41' E 135°11'7 8.8
2014-Oct-16 11:33N 34°36' E 135°06'1 1.1
2014-Oct-16 10:33N 34°37' E 135°07'6 5.5
2014-Oct-16 09:34N 34°41' E 135°11'5 4.9
2014-Oct-16 08:34N 34°37' E 135°07'5 4.9
2014-Oct-16 07:33N 34°41' E 135°11'0 0.0
2014-Oct-16 06:31N 34°41' E 135°11'0 0.0
2014-Oct-16 05:31N 34°41' E 135°11'2 2.5
2014-Oct-16 04:33N 34°38' E 135°11'3 2.5
2014-Oct-16 03:33N 34°37' E 135°14'4 4.0
2014-Oct-16 02:34N 34°41' E 135°11'0 0.0
2014-Oct-16 01:27N 34°41' E 135°11'0 0.0
2014-Oct-16 00:15N 34°41' E 135°11'0 0.0
2014-Oct-15 23:33N 34°41' E 135°11'0 0.0
2014-Oct-15 22:33N 34°41' E 135°11'0 0.0
2014-Oct-15 21:33N 34°41' E 135°11'0 0.0
2014-Oct-15 20:33N 34°41' E 135°11'0 0.0
2014-Oct-15 19:33N 34°41' E 135°11'0 0.0
2014-Oct-15 18:33N 34°41' E 135°11'0 0.0
2014-Oct-15 17:33N 34°41' E 135°11'0 0.0
2014-Oct-15 16:27N 34°41' E 135°11'0 0.0
2014-Oct-15 15:33N 34°41' E 135°11'0 0.0
2014-Oct-15 14:33N 34°41' E 135°11'0 0.0
2014-Oct-15 13:33N 34°41' E 135°11'0 0.0
2014-Oct-15 12:33N 34°41' E 135°11'7 6.8
2014-Oct-15 11:33N 34°35' E 135°06'2 1.7
2014-Oct-15 10:33N 34°37' E 135°07'5 5.2
2014-Oct-15 09:33N 34°41' E 135°11'5 4.9
2014-Oct-15 08:33N 34°37' E 135°07'5 4.9
2014-Oct-15 07:33N 34°41' E 135°11'0 0.0
2014-Oct-15 06:33N 34°41' E 135°11'0 0.0
2014-Oct-15 05:27N 34°41' E 135°11'2 2.8
2014-Oct-15 04:34N 34°38' E 135°11'2 2.4
2014-Oct-15 03:33N 34°37' E 135°14'4 3.4
2014-Oct-15 02:22N 34°41' E 135°11'0 0.0
2014-Oct-15 01:28N 34°41' E 135°11'0 0.0
2014-Oct-15 00:22N 34°41' E 135°11'0 0.0
2014-Oct-14 23:28N 34°41' E 135°11'0 0.0
2014-Oct-14 22:28N 34°41' E 135°11'0 0.0
2014-Oct-14 21:28N 34°41' E 135°11'0 0.0
2014-Oct-14 20:28N 34°41' E 135°11'0 0.0
2014-Oct-14 19:28N 34°41' E 135°11'0 0.0
2014-Oct-14 18:28N 34°41' E 135°11'0 0.0
2014-Oct-14 17:22N 34°41' E 135°11'0 0.0
2014-Oct-14 16:28N 34°41' E 135°11'0 0.0
2014-Oct-14 15:28N 34°41' E 135°11'0 0.0
2014-Oct-14 14:28N 34°41' E 135°11'0 0.0
2014-Oct-14 13:16N 34°41' E 135°11'0 0.0
2014-Oct-14 12:28N 34°41' E 135°11'6 6.7
2014-Oct-14 11:33N 34°36' E 135°07'1 0.6
2014-Oct-14 10:33N 34°36' E 135°07'6 5.2
2014-Oct-14 09:28N 34°41' E 135°11'0 0.0
2014-Oct-14 08:28N 34°41' E 135°11'0 0.0
2014-Oct-14 07:28N 34°41' E 135°11'0 0.0
2014-Oct-14 06:22N 34°41' E 135°11'0 0.0
2014-Oct-14 05:28N 34°41' E 135°11'0 0.0
2014-Oct-14 04:28N 34°41' E 135°11'0 0.0
2014-Oct-14 03:28N 34°41' E 135°11'0 0.0
2014-Oct-14 02:22N 34°41' E 135°11'2 2.5
2014-Oct-14 01:33N 34°39' E 135°11'10 9.6
2014-Oct-14 00:29N 34°29' E 135°12'0 0.0
2014-Oct-13 23:23N 34°29' E 135°12'0 0.0
2014-Oct-13 22:29N 34°29' E 135°12'0 0.0
2014-Oct-13 21:29N 34°29' E 135°12'0 0.0
2014-Oct-13 20:29N 34°29' E 135°12'0 0.0
2014-Oct-13 19:23N 34°29' E 135°12'0 0.0
2014-Oct-13 18:29N 34°29' E 135°12'0 0.0
2014-Oct-13 17:29N 34°29' E 135°12'0 0.0
2014-Oct-13 16:29N 34°29' E 135°12'0 0.0
2014-Oct-13 15:29N 34°29' E 135°12'0 0.0
2014-Oct-13 14:29N 34°29' E 135°12'0 0.0
2014-Oct-13 13:29N 34°29' E 135°12'0 0.0
2014-Oct-13 12:29N 34°29' E 135°12'0 0.1
2014-Oct-13 11:29N 34°29' E 135°12'0 0.1
2014-Oct-13 10:29N 34°29' E 135°12'0 0.0
2014-Oct-13 09:17N 34°29' E 135°12'0 0.0
2014-Oct-13 08:29N 34°29' E 135°12'0 0.0
2014-Oct-13 07:29N 34°29' E 135°12'0 0.0
2014-Oct-13 06:29N 34°29' E 135°12'0 0.0
2014-Oct-13 05:23N 34°29' E 135°12'0 0.0
2014-Oct-13 04:29N 34°29' E 135°12'0 0.0
2014-Oct-13 03:29N 34°29' E 135°12'0 0.0
2014-Oct-13 02:29N 34°29' E 135°12'0 0.0
2014-Oct-13 01:29N 34°29' E 135°12'0 0.0
2014-Oct-13 00:29N 34°29' E 135°12'0 0.0
2014-Oct-12 23:29N 34°29' E 135°12'0 0.0
2014-Oct-12 22:29N 34°29' E 135°12'0 0.0
2014-Oct-12 21:29N 34°29' E 135°12'0 0.0
2014-Oct-12 20:23N 34°29' E 135°12'0 0.0
2014-Oct-12 19:29N 34°29' E 135°12'0 0.0
2014-Oct-12 18:29N 34°29' E 135°12'0 0.0
2014-Oct-12 17:23N 34°29' E 135°12'0 0.0
2014-Oct-12 16:29N 34°29' E 135°12'0 0.1
2014-Oct-12 15:34N 34°29' E 135°12'1212.1
2014-Oct-12 14:33N 34°41' E 135°11'0 0.1
2014-Oct-12 13:32N 34°41' E 135°11'0 0.0
2014-Oct-12 12:32N 34°41' E 135°11'6 6.5
2014-Oct-12 11:33N 34°36' E 135°06'2 2.2
2014-Oct-12 10:33N 34°37' E 135°08'4 4.2
2014-Oct-12 09:33N 34°41' E 135°11'7 7.3
2014-Oct-12 08:33N 34°35' E 135°06'3 3.0
2014-Oct-12 07:33N 34°37' E 135°08'4 4.0
2014-Oct-12 06:29N 34°41' E 135°11'0 0.0
2014-Oct-12 05:30N 34°41' E 135°11'2 2.6
2014-Oct-12 04:34N 34°38' E 135°11'3 2.5
2014-Oct-12 03:33N 34°37' E 135°14'4 4.3
2014-Oct-12 02:33N 34°41' E 135°11'0 0.0
2014-Oct-12 01:28N 34°41' E 135°11'0 0.0
2014-Oct-12 00:28N 34°41' E 135°11'0 0.0
2014-Oct-11 23:28N 34°41' E 135°11'0 0.0
2014-Oct-11 22:28N 34°41' E 135°11'0 0.0
2014-Oct-11 21:28N 34°41' E 135°11'0 0.0
2014-Oct-11 20:28N 34°41' E 135°11'0 0.0
2014-Oct-11 19:28N 34°41' E 135°11'0 0.0
2014-Oct-11 18:28N 34°41' E 135°11'0 0.0
2014-Oct-11 17:28N 34°41' E 135°11'0 0.0
2014-Oct-11 16:28N 34°41' E 135°11'0 0.0
2014-Oct-11 15:28N 34°41' E 135°11'0 0.0
2014-Oct-11 14:28N 34°41' E 135°11'0 0.0
2014-Oct-11 13:28N 34°41' E 135°11'0 0.0
2014-Oct-11 12:28N 34°41' E 135°11'6 6.5
2014-Oct-11 11:33N 34°36' E 135°08'2 1.5
2014-Oct-11 10:33N 34°37' E 135°07'6 5.2
2014-Oct-11 09:29N 34°41' E 135°11'2 2.6
2014-Oct-11 08:33N 34°38' E 135°11'2 2.5
2014-Oct-11 07:33N 34°37' E 135°14'4 3.8
2014-Oct-11 06:28N 34°41' E 135°11'0 0.0
2014-Oct-11 05:28N 34°41' E 135°11'3 2.9
2014-Oct-11 04:33N 34°38' E 135°11'3 2.7
2014-Oct-11 03:33N 34°37' E 135°14'4 4.2
2014-Oct-11 02:33N 34°41' E 135°11'0 0.0
2014-Oct-11 01:30N 34°41' E 135°11'0 0.0
2014-Oct-11 00:30N 34°41' E 135°11'0 0.0
2014-Oct-10 23:18N 34°41' E 135°11'0 0.0
2014-Oct-10 22:30N 34°41' E 135°11'0 0.0
2014-Oct-10 21:24N 34°41' E 135°11'0 0.0
2014-Oct-10 20:30N 34°41' E 135°11'0 0.0
2014-Oct-10 19:30N 34°41' E 135°11'0 0.0
2014-Oct-10 18:30N 34°41' E 135°11'0 0.0
2014-Oct-10 17:30N 34°41' E 135°11'0 0.0
2014-Oct-10 16:30N 34°41' E 135°11'0 0.0
2014-Oct-10 15:24N 34°41' E 135°11'0 0.0
2014-Oct-10 14:30N 34°41' E 135°11'0 0.0
2014-Oct-10 13:30N 34°41' E 135°11'0 0.0
2014-Oct-10 12:30N 34°41' E 135°11'6 6.7
2014-Oct-10 11:33N 34°36' E 135°07'1 1.1
2014-Oct-10 10:33N 34°37' E 135°07'5 5.2
2014-Oct-10 09:32N 34°41' E 135°11'0 0.0
2014-Oct-10 08:32N 34°41' E 135°11'5 4.9
2014-Oct-10 07:33N 34°38' E 135°07'5 4.6
2014-Oct-10 06:31N 34°41' E 135°11'0 0.0
2014-Oct-10 05:25N 34°41' E 135°11'  

Dump ship's entire track history